createdAt,value
2023-03-16T00:04:40.551Z,1003.1
2023-03-16T00:09:40.597Z,1003.0
2023-03-16T00:14:40.535Z,1003.0
2023-03-16T00:19:40.615Z,1002.7
2023-03-16T00:24:40.533Z,1002.6
2023-03-16T00:29:40.610Z,1002.6
2023-03-16T00:34:40.529Z,1002.5
2023-03-16T00:39:40.613Z,1002.5
2023-03-16T00:44:40.545Z,1002.4
2023-03-16T00:49:40.619Z,1002.4
2023-03-16T00:54:40.525Z,1002.2
2023-03-16T00:59:40.593Z,1002.1
2023-03-16T01:04:40.545Z,1002.0
2023-03-16T01:09:40.592Z,1001.9
2023-03-16T01:14:40.566Z,1001.8
2023-03-16T01:19:40.589Z,1001.7
2023-03-16T01:24:40.583Z,1001.5
2023-03-16T01:29:40.587Z,1001.4
2023-03-16T01:34:40.543Z,1001.3
2023-03-16T01:39:40.637Z,1001.2
2023-03-16T01:44:40.545Z,1001.2
2023-03-16T01:49:40.633Z,1001.2
2023-03-16T01:54:40.540Z,1001.2
2023-03-16T01:59:40.637Z,1001.1
2023-03-16T02:04:40.623Z,1001.0
2023-03-16T02:09:40.657Z,1000.9
2023-03-16T02:14:40.575Z,1000.8
2023-03-16T02:19:40.652Z,1000.7
2023-03-16T02:24:40.562Z,1000.7
2023-03-16T02:29:40.649Z,1000.6
2023-03-16T02:34:40.564Z,1000.5
2023-03-16T02:39:40.656Z,1000.4
2023-03-16T02:44:40.569Z,1000.3
2023-03-16T02:49:40.646Z,1000.2
2023-03-16T02:54:40.573Z,1000.2
2023-03-16T02:59:40.650Z,1000.2
2023-03-16T03:04:40.570Z,1000.2
2023-03-16T03:09:40.876Z,1000.1
2023-03-16T03:14:40.568Z,1000.1
2023-03-16T03:19:40.578Z,1000.1
2023-03-16T03:24:40.586Z,1000.1
2023-03-16T03:29:40.580Z,1000.0
2023-03-16T03:34:40.580Z,999.8
2023-03-16T03:39:40.585Z,999.8
2023-03-16T03:44:40.592Z,999.6
2023-03-16T03:49:40.574Z,999.6
2023-03-16T03:54:40.574Z,999.5
2023-03-16T03:59:40.586Z,999.5
2023-03-16T04:04:40.578Z,999.4
2023-03-16T04:09:40.570Z,999.4
2023-03-16T04:14:40.579Z,999.4
2023-03-16T04:19:40.585Z,999.3
2023-03-16T04:24:40.583Z,999.3
2023-03-16T04:29:40.593Z,999.3
2023-03-16T04:34:40.582Z,999.3
2023-03-16T04:39:40.586Z,999.2
2023-03-16T04:44:40.584Z,999.1
2023-03-16T04:49:40.584Z,999.1
2023-03-16T04:54:40.590Z,999.1
2023-03-16T04:59:40.601Z,999.0
2023-03-16T05:04:40.572Z,999.0
2023-03-16T05:09:40.602Z,999.0
2023-03-16T05:14:40.598Z,999.0
2023-03-16T05:19:40.596Z,999.0
2023-03-16T05:24:40.599Z,998.9
2023-03-16T05:29:40.587Z,999.0
2023-03-16T05:34:40.599Z,999.0
2023-03-16T05:39:40.602Z,999.0
2023-03-16T05:44:40.652Z,999.0
2023-03-16T05:49:40.604Z,998.9
2023-03-16T05:54:40.642Z,998.9
2023-03-16T05:59:40.597Z,998.9
2023-03-16T06:04:40.617Z,998.9
2023-03-16T06:09:40.617Z,998.9
2023-03-16T06:14:40.620Z,998.9
2023-03-16T06:19:40.597Z,998.9
2023-03-16T06:24:40.617Z,998.9
2023-03-16T06:29:40.621Z,998.9
2023-03-16T06:34:40.626Z,998.8
2023-03-16T06:39:40.615Z,998.8
2023-03-16T06:44:40.630Z,998.7
2023-03-16T06:49:40.626Z,998.7
2023-03-16T06:54:40.704Z,998.7
2023-03-16T06:59:40.604Z,998.6
2023-03-16T07:04:40.757Z,998.7
2023-03-16T07:09:41.890Z,998.7
2023-03-16T07:14:40.603Z,998.7
2023-03-16T07:19:40.623Z,998.6
2023-03-16T07:24:40.617Z,998.7
2023-03-16T07:29:40.635Z,998.7
2023-03-16T07:34:40.642Z,998.7
2023-03-16T07:39:40.630Z,998.6
2023-03-16T07:44:40.624Z,998.6
2023-03-16T07:49:40.630Z,998.6
2023-03-16T07:54:40.625Z,998.6
2023-03-16T07:59:40.639Z,998.6
2023-03-16T08:04:40.638Z,998.6
2023-03-16T08:09:40.641Z,998.7
2023-03-16T08:14:40.617Z,998.7
2023-03-16T08:19:40.640Z,998.6
2023-03-16T08:24:40.643Z,998.7
2023-03-16T08:29:40.649Z,998.8
2023-03-16T08:34:40.647Z,998.7
2023-03-16T08:39:40.637Z,998.7
2023-03-16T08:44:40.627Z,998.5
2023-03-16T08:49:40.698Z,998.5
2023-03-16T08:54:43.065Z,998.6
2023-03-16T08:59:40.635Z,998.5
2023-03-16T09:04:40.724Z,998.5
2023-03-16T09:09:40.641Z,998.5
2023-03-16T09:19:51.210Z,998.7
2023-03-16T09:24:40.632Z,998.7
2023-03-16T09:29:40.642Z,998.6
2023-03-16T09:34:40.659Z,998.6
2023-03-16T09:44:40.635Z,998.5
2023-03-16T09:54:40.640Z,998.4
2023-03-16T09:59:40.671Z,998.5
2023-03-16T10:04:40.721Z,998.5
2023-03-16T10:09:40.654Z,998.5
2023-03-16T10:14:40.699Z,998.4
2023-03-16T10:19:40.656Z,998.4
2023-03-16T10:24:40.634Z,998.4
2023-03-16T10:29:40.657Z,998.3
2023-03-16T10:34:40.648Z,998.2
2023-03-16T10:39:40.649Z,998.3
2023-03-16T10:44:40.660Z,998.1
2023-03-16T10:49:40.650Z,998.1
2023-03-16T10:54:40.680Z,998.1
2023-03-16T10:59:40.689Z,998.1
2023-03-16T11:04:40.763Z,998.0
2023-03-16T11:09:40.675Z,998.1
2023-03-16T11:14:40.672Z,998.1
2023-03-16T11:19:40.669Z,998.0
2023-03-16T11:24:40.659Z,997.9
2023-03-16T11:29:40.692Z,997.8
2023-03-16T11:34:40.685Z,997.8
2023-03-16T11:39:40.713Z,997.8
2023-03-16T11:44:40.693Z,997.7
2023-03-16T11:49:40.703Z,997.5
2023-03-16T11:54:40.684Z,997.5
2023-03-16T12:04:40.696Z,997.6
2023-03-16T12:14:40.681Z,997.5
2023-03-16T12:19:40.696Z,997.5
2023-03-16T12:24:40.665Z,997.5
2023-03-16T12:29:40.702Z,997.5
2023-03-16T12:34:40.686Z,997.4
2023-03-16T12:39:40.707Z,997.4
2023-03-16T12:49:40.908Z,997.3
2023-03-16T12:54:40.706Z,997.3
2023-03-16T12:59:40.677Z,997.3
2023-03-16T13:04:40.780Z,997.3
2023-03-16T13:09:40.697Z,997.2
2023-03-16T13:14:40.812Z,997.3
2023-03-16T13:19:40.698Z,997.2
2023-03-16T13:24:40.706Z,997.2
2023-03-16T13:29:40.696Z,997.0
2023-03-16T13:34:40.714Z,997.0
2023-03-16T13:39:40.698Z,997.0
2023-03-16T13:44:40.709Z,996.9
2023-03-16T13:49:40.712Z,996.9
2023-03-16T13:54:40.706Z,996.8
2023-03-16T13:59:40.718Z,996.8
2023-03-16T14:04:43.035Z,996.7
2023-03-16T14:09:40.714Z,996.6
2023-03-16T14:14:40.706Z,996.5
2023-03-16T14:19:40.724Z,996.6
2023-03-16T14:24:40.708Z,996.6
2023-03-16T14:29:40.717Z,996.6
2023-03-16T14:34:40.719Z,996.7
2023-03-16T14:39:40.743Z,996.8
2023-03-16T14:44:40.706Z,996.7
2023-03-16T14:49:43.230Z,996.8
2023-03-16T14:54:40.725Z,996.8
2023-03-16T14:59:40.728Z,996.7
2023-03-16T15:04:40.720Z,996.8
2023-03-16T15:14:40.732Z,996.9
2023-03-16T15:19:40.741Z,996.7
2023-03-16T15:24:40.724Z,996.6
2023-03-16T15:29:40.764Z,996.5
2023-03-16T15:34:40.733Z,996.4
2023-03-16T15:39:40.763Z,996.5
2023-03-16T15:44:40.743Z,996.7
2023-03-16T15:49:47.945Z,996.8
2023-03-16T15:54:40.733Z,996.9
2023-03-16T15:59:40.743Z,996.8
2023-03-16T16:04:40.839Z,996.9
2023-03-16T16:09:40.748Z,996.8
2023-03-16T16:14:40.751Z,996.6
2023-03-16T16:19:40.813Z,996.6
2023-03-16T16:24:40.753Z,996.6
2023-03-16T16:29:40.753Z,996.6
2023-03-16T16:34:40.757Z,996.5
2023-03-16T16:39:40.748Z,996.5
2023-03-16T16:44:40.759Z,996.4
2023-03-16T16:49:40.751Z,996.4
2023-03-16T16:54:40.748Z,996.3
2023-03-16T16:59:40.766Z,996.3
2023-03-16T17:04:40.796Z,996.3
2023-03-16T17:09:40.814Z,996.5
2023-03-16T17:14:40.763Z,996.5
2023-03-16T17:19:40.762Z,996.5
2023-03-16T17:24:40.768Z,996.5
2023-03-16T17:29:40.829Z,996.7
2023-03-16T17:34:40.744Z,996.7
2023-03-16T17:39:40.766Z,996.8
2023-03-16T17:44:40.786Z,996.7
2023-03-16T17:49:40.773Z,996.7
2023-03-16T17:54:40.779Z,996.8
2023-03-16T17:59:40.848Z,996.7
2023-03-16T18:04:40.781Z,996.8
2023-03-16T18:09:40.853Z,996.7
2023-03-16T18:14:40.800Z,996.7
2023-03-16T18:19:40.823Z,996.7
2023-03-16T18:24:40.780Z,996.8
2023-03-16T18:34:40.802Z,996.9
2023-03-16T18:39:40.836Z,996.9
2023-03-16T18:44:40.803Z,996.9
2023-03-16T18:49:40.828Z,996.9
2023-03-16T18:54:40.809Z,996.8
2023-03-16T18:59:40.842Z,996.9
2023-03-16T19:04:40.813Z,996.8
2023-03-16T19:09:40.916Z,996.7
2023-03-16T19:14:40.800Z,996.7
2023-03-16T19:19:40.829Z,996.7
2023-03-16T19:24:40.821Z,996.6
2023-03-16T19:29:40.848Z,996.6
2023-03-16T19:34:40.793Z,996.7
2023-03-16T19:39:40.816Z,996.4
2023-03-16T19:44:40.801Z,996.5
2023-03-16T19:49:40.823Z,996.3
2023-03-16T19:54:40.808Z,996.3
2023-03-16T19:59:40.825Z,996.4
2023-03-16T20:04:40.872Z,996.6
2023-03-16T20:09:40.907Z,996.5
2023-03-16T20:14:40.822Z,996.5
2023-03-16T20:19:40.838Z,996.6
2023-03-16T20:24:42.408Z,996.7
2023-03-16T20:29:40.822Z,996.7
2023-03-16T20:34:40.862Z,996.6
2023-03-16T20:39:40.945Z,996.6
2023-03-16T20:44:40.830Z,996.5
2023-03-16T20:49:40.957Z,996.4
2023-03-16T20:54:40.842Z,996.5
2023-03-16T20:59:40.912Z,996.6
2023-03-16T21:04:40.846Z,996.6
2023-03-16T21:09:42.131Z,996.6
2023-03-16T21:14:40.846Z,996.6
2023-03-16T21:19:40.908Z,996.5
2023-03-16T21:24:40.830Z,996.5
2023-03-16T21:29:40.909Z,996.5
2023-03-16T21:34:40.841Z,996.5
2023-03-16T21:39:40.905Z,996.5
2023-03-16T21:44:40.843Z,996.5
2023-03-16T21:49:40.908Z,996.4
2023-03-16T21:54:40.848Z,996.5
2023-03-16T21:59:40.910Z,996.4
2023-03-16T22:04:40.840Z,996.4
2023-03-16T22:09:40.966Z,996.4
2023-03-16T22:14:40.836Z,996.4
2023-03-16T22:19:40.917Z,996.3
2023-03-16T22:24:40.864Z,996.4
2023-03-16T22:29:40.949Z,996.3
2023-03-16T22:34:40.849Z,996.2
2023-03-16T22:39:40.947Z,996.3
2023-03-16T22:44:40.857Z,996.3
2023-03-16T22:49:40.914Z,996.3
2023-03-16T22:54:40.877Z,996.4
2023-03-16T22:59:40.953Z,996.5
2023-03-16T23:04:40.911Z,996.6
2023-03-16T23:09:40.952Z,996.6
2023-03-16T23:14:40.869Z,996.6
2023-03-16T23:19:40.943Z,996.5
2023-03-16T23:24:40.856Z,996.5
2023-03-16T23:29:40.963Z,996.5
2023-03-16T23:34:40.865Z,996.5
2023-03-16T23:39:40.931Z,996.5
2023-03-16T23:44:40.874Z,996.5
2023-03-16T23:49:40.938Z,996.5
2023-03-16T23:54:40.827Z,996.5
2023-03-16T23:59:40.963Z,996.5
